Time;durP1;ratioP1;P1;durP2;ratioP2;P2;SDS_P1;SDS_P2;PMS_P1;PMS_P2;Temp;Humidity;BMP_temperature;BMP_pressure;BME280_temperature;BME280_humidity;BME280_pressure;Samples;Min_cycle;Max_cycle;Signal;HPM_P1;HPM_P2
2021/01/11 00:00:57;;;;;;;33.03;22.70;;;-2.00;99.90;;;;;;5091600;28;20274;-85
2021/01/11 00:03:24;;;;;;;32.38;23.52;;;-2.00;99.90;;;;;;5091304;28;20597;-85
2021/01/11 00:05:50;;;;;;;34.78;22.80;;;-1.90;99.90;;;;;;5090986;28;20224;-85
2021/01/11 00:08:17;;;;;;;34.25;23.23;;;-1.90;99.90;;;;;;5091337;28;20641;-85
2021/01/11 00:10:43;;;;;;;30.55;22.10;;;-2.00;99.90;;;;;;5091420;28;20321;-85
2021/01/11 00:13:09;;;;;;;31.50;21.02;;;-2.00;99.90;;;;;;5091212;28;20227;-85
2021/01/11 00:15:35;;;;;;;33.45;23.23;;;-2.10;99.90;;;;;;5091208;28;20197;-85
2021/01/11 00:18:02;;;;;;;34.15;23.55;;;-2.10;99.90;;;;;;5091440;28;20261;-85
2021/01/11 00:20:28;;;;;;;28.00;20.35;;;-2.10;99.90;;;;;;5091384;28;20201;-85
2021/01/11 00:22:54;;;;;;;35.25;22.63;;;-2.10;99.90;;;;;;5091141;28;20217;-83
2021/01/11 00:25:21;;;;;;;35.60;22.67;;;-2.10;99.90;;;;;;5090807;28;20224;-84
2021/01/11 00:27:48;;;;;;;34.45;22.58;;;-2.10;99.90;;;;;;5091199;28;20201;-84
2021/01/11 00:30:14;;;;;;;28.75;20.80;;;-2.10;99.90;;;;;;5091179;28;20200;-84
2021/01/11 00:32:41;;;;;;;30.13;20.40;;;-2.20;99.90;;;;;;5090850;28;20226;-83
2021/01/11 00:35:09;;;;;;;33.03;23.17;;;-2.20;99.90;;;;;;5091031;28;20203;-84
2021/01/11 00:37:35;;;;;;;34.63;23.50;;;-2.20;99.90;;;;;;5090915;28;20200;-84
2021/01/11 00:40:02;;;;;;;33.42;23.23;;;-2.30;99.90;;;;;;5091299;28;20208;-84
2021/01/11 00:42:34;;;;;;;35.38;25.65;;;-2.30;99.90;;;;;;5090661;28;20200;-85
2021/01/11 00:45:01;;;;;;;28.73;21.38;;;-2.30;99.90;;;;;;5090960;28;20216;-85
2021/01/11 00:47:27;;;;;;;32.92;22.42;;;-2.30;99.90;;;;;;5094923;28;20204;-85
2021/01/11 00:49:53;;;;;;;29.35;21.58;;;-2.40;99.90;;;;;;5094878;28;20231;-84
2021/01/11 00:52:19;;;;;;;32.08;22.52;;;-2.40;99.90;;;;;;5094786;28;20245;-85
2021/01/11 00:54:45;;;;;;;32.28;21.70;;;-2.50;99.90;;;;;;5094196;28;20212;-85
2021/01/11 00:57:12;;;;;;;34.30;23.50;;;-2.50;99.90;;;;;;5094712;28;20205;-83
2021/01/11 00:59:39;;;;;;;37.22;23.73;;;-2.50;99.90;;;;;;5094569;28;20291;-84
2021/01/11 01:02:05;;;;;;;35.22;23.23;;;-2.50;99.90;;;;;;5094488;28;20203;-84
2021/01/11 01:04:31;;;;;;;36.35;22.73;;;-2.50;99.90;;;;;;5094344;28;20290;-85
2021/01/11 01:07:02;;;;;;;32.75;23.10;;;-2.40;99.90;;;;;;5094656;28;20669;-84
2021/01/11 01:09:28;;;;;;;35.70;23.17;;;-2.40;99.90;;;;;;5094949;28;20640;-84
2021/01/11 01:11:55;;;;;;;32.85;23.80;;;-2.50;99.90;;;;;;5094682;28;20277;-83
2021/01/11 01:14:21;;;;;;;34.47;22.42;;;-2.40;99.90;;;;;;5094688;28;20217;-83
2021/01/11 01:16:48;;;;;;;39.75;26.35;;;-2.40;99.90;;;;;;5094174;28;20197;-84
2021/01/11 01:19:14;;;;;;;33.83;21.52;;;-2.40;99.90;;;;;;5094692;28;20669;-84
2021/01/11 01:21:40;;;;;;;28.73;20.60;;;-2.50;99.90;;;;;;5094310;28;20217;-84
2021/01/11 01:24:07;;;;;;;36.95;23.65;;;-2.50;99.90;;;;;;5094319;28;20224;-84
2021/01/11 01:26:33;;;;;;;33.03;22.38;;;-2.50;99.90;;;;;;5093863;28;20196;-84
2021/01/11 01:28:59;;;;;;;34.55;23.73;;;-2.60;99.90;;;;;;5094658;28;20227;-84
2021/01/11 01:31:26;;;;;;;33.45;22.27;;;-2.60;99.90;;;;;;5094215;28;20208;-84
2021/01/11 01:33:52;;;;;;;34.15;22.65;;;-2.60;99.90;;;;;;5094173;28;20674;-84
2021/01/11 01:36:19;;;;;;;31.67;23.73;;;-2.60;99.90;;;;;;5093459;28;20578;-83
2021/01/11 01:38:45;;;;;;;33.85;22.40;;;-2.60;99.90;;;;;;5094312;28;20208;-85
2021/01/11 01:41:11;;;;;;;39.63;25.27;;;-2.60;99.90;;;;;;5093878;28;20193;-85
2021/01/11 01:43:38;;;;;;;34.92;21.38;;;-2.70;99.90;;;;;;5094097;28;20216;-85
2021/01/11 01:46:05;;;;;;;36.60;22.10;;;-2.70;99.90;;;;;;5093566;28;20216;-85
2021/01/11 01:48:31;;;;;;;28.25;21.45;;;-2.70;99.90;;;;;;5094181;28;20254;-86
2021/01/11 01:50:58;;;;;;;28.88;20.80;;;-2.70;99.90;;;;;;5093814;28;20196;-83
2021/01/11 01:53:24;;;;;;;39.28;22.48;;;-2.70;99.90;;;;;;5093858;28;20736;-84
2021/01/11 01:55:50;;;;;;;31.38;21.48;;;-2.70;99.90;;;;;;5093023;28;20196;-84
2021/01/11 01:58:17;;;;;;;36.35;21.00;;;-2.70;99.90;;;;;;5093374;28;20216;-85
2021/01/11 02:00:43;;;;;;;31.33;20.77;;;-2.70;99.90;;;;;;5093029;28;20197;-84
2021/01/11 02:03:10;;;;;;;29.05;18.90;;;-2.70;99.90;;;;;;5093335;28;20232;-84
2021/01/11 02:05:36;;;;;;;29.23;20.35;;;-2.70;99.90;;;;;;5092807;28;20223;-83
2021/01/11 02:08:12;;;;;;;33.25;23.55;;;-2.70;99.90;;;;;;5093587;28;20203;-85
2021/01/11 02:11:00;;;;;;;30.42;19.60;;;-2.70;99.90;;;;;;5093497;28;20208;-85
2021/01/11 02:13:39;;;;;;;24.98;17.33;;;-2.80;99.90;;;;;;5093507;28;20220;-85
2021/01/11 02:16:11;;;;;;;29.20;21.45;;;-2.80;99.90;;;;;;5092446;28;20657;-86
2021/01/11 02:18:46;;;;;;;28.10;18.10;;;-2.90;99.90;;;;;;5091760;28;20204;-84
2021/01/11 02:21:44;;;;;;;30.65;20.23;;;-2.80;99.90;;;;;;5093152;28;20243;-85
2021/01/11 02:24:53;;;;;;;25.50;18.13;;;-2.90;99.90;;;;;;5077291;28;20224;-84
2021/01/11 02:27:30;;;;;;;22.83;16.40;;;-3.00;99.90;;;;;;5092923;28;20208;-84
2021/01/11 02:30:09;;;;;;;26.92;18.98;;;-3.00;99.90;;;;;;5093271;28;20196;-84
2021/01/11 02:32:38;;;;;;;29.02;19.67;;;-3.00;99.90;;;;;;5092816;28;20257;-85
2021/01/11 02:35:08;;;;;;;26.27;17.65;;;-3.00;99.90;;;;;;5093180;28;20289;-84
2021/01/11 02:37:41;;;;;;;30.30;20.00;;;-3.00;99.90;;;;;;5092793;28;20276;-84
2021/01/11 02:40:09;;;;;;;26.85;18.40;;;-3.10;99.90;;;;;;5093245;28;20584;-84
2021/01/11 02:42:35;;;;;;;33.88;18.75;;;-3.10;99.90;;;;;;5092607;28;20250;-84
2021/01/11 02:45:04;;;;;;;28.80;17.73;;;-3.10;99.90;;;;;;5092648;28;20297;-84
2021/01/11 02:47:38;;;;;;;25.27;17.30;;;-3.20;99.90;;;;;;5092406;28;20203;-83
2021/01/11 02:50:07;;;;;;;26.92;19.15;;;-3.20;99.90;;;;;;5092910;28;20201;-84
2021/01/11 02:52:41;;;;;;;29.52;19.88;;;-3.20;99.90;;;;;;5092698;28;20216;-83
2021/01/11 02:55:13;;;;;;;31.23;18.38;;;-3.20;99.90;;;;;;5092748;28;20247;-84
2021/01/11 02:57:46;;;;;;;26.60;19.10;;;-3.30;99.90;;;;;;5092179;28;20204;-84
2021/01/11 03:00:16;;;;;;;30.27;18.50;;;-3.30;99.90;;;;;;5091834;28;20615;-83
2021/01/11 03:02:45;;;;;;;30.80;19.75;;;-3.30;99.90;;;;;;5092052;28;20197;-84
2021/01/11 03:05:13;;;;;;;31.23;20.63;;;-3.30;99.90;;;;;;5092039;28;20212;-84
2021/01/11 03:07:40;;;;;;;32.20;19.35;;;-3.40;99.90;;;;;;5091246;28;20196;-83
2021/01/11 03:10:07;;;;;;;29.05;19.55;;;-3.40;99.90;;;;;;5100458;28;20199;-88
2021/01/11 03:12:33;;;;;;;34.70;20.88;;;-3.50;99.90;;;;;;5100533;28;20192;-82
2021/01/11 03:14:59;;;;;;;31.05;20.42;;;-3.50;99.90;;;;;;5100958;28;20568;-83
2021/01/11 03:17:26;;;;;;;34.85;19.80;;;-3.50;99.90;;;;;;5100887;28;20218;-83
2021/01/11 03:19:52;;;;;;;29.63;19.60;;;-3.50;99.90;;;;;;5099234;28;20221;-89
2021/01/11 03:22:18;;;;;;;32.22;20.15;;;-3.50;99.90;;;;;;5104921;28;20206;-83
2021/01/11 03:24:45;;;;;;;39.80;21.13;;;-3.50;99.90;;;;;;5100080;28;20208;-84
2021/01/11 03:27:11;;;;;;;42.03;23.42;;;-3.50;99.90;;;;;;5102497;28;20199;-85
2021/01/11 03:29:37;;;;;;;33.40;22.30;;;-3.40;99.90;;;;;;5100400;28;20201;-83
2021/01/11 03:32:04;;;;;;;32.13;22.27;;;-3.40;99.90;;;;;;5101934;28;20196;-83
2021/01/11 03:34:31;;;;;;;31.27;18.42;;;-3.50;99.90;;;;;;5101286;28;20639;-82
2021/01/11 03:36:57;;;;;;;32.83;18.73;;;-3.50;99.90;;;;;;5100900;28;20199;-82
2021/01/11 03:39:23;;;;;;;31.30;20.50;;;-3.50;99.90;;;;;;5101554;28;20188;-82
2021/01/11 03:41:49;;;;;;;36.85;22.35;;;-3.50;99.90;;;;;;5101373;28;20198;-83
2021/01/11 03:44:15;;;;;;;29.60;18.23;;;-3.60;99.90;;;;;;5101611;28;20224;-83
2021/01/11 03:46:41;;;;;;;36.28;21.83;;;-3.50;99.90;;;;;;5100181;28;20197;-84
2021/01/11 03:49:08;;;;;;;31.27;20.10;;;-3.50;99.90;;;;;;5104907;28;20203;-83
2021/01/11 03:51:34;;;;;;;30.83;19.80;;;-3.50;99.90;;;;;;5094244;28;20189;-83
2021/01/11 03:54:01;;;;;;;35.42;20.60;;;-3.60;99.90;;;;;;5098489;28;20220;-83
2021/01/11 03:56:27;;;;;;;34.17;22.55;;;-3.60;99.90;;;;;;5101831;28;20202;-85
2021/01/11 03:58:53;;;;;;;35.65;22.35;;;-3.60;99.90;;;;;;5097700;28;20191;-82
2021/01/11 04:01:19;;;;;;;36.00;22.52;;;-3.50;99.90;;;;;;5096852;28;20197;-83
2021/01/11 04:03:45;;;;;;;35.05;21.70;;;-3.50;99.90;;;;;;5103419;28;20715;-86
2021/01/11 04:06:12;;;;;;;32.15;21.92;;;-3.50;99.90;;;;;;5100551;28;20220;-84
2021/01/11 04:08:39;;;;;;;32.17;20.45;;;-3.50;99.90;;;;;;5102528;28;20192;-95
2021/01/11 04:11:07;;;;;;;35.83;21.00;;;-3.50;99.90;;;;;;5111030;28;20195;-91
2021/01/11 04:13:34;;;;;;;29.58;20.10;;;-3.60;99.90;;;;;;5100133;28;20209;-92
2021/01/11 04:16:03;;;;;;;30.52;21.05;;;-3.60;99.90;;;;;;5096088;28;20192;-88
2021/01/11 04:18:29;;;;;;;32.80;21.10;;;-3.60;99.90;;;;;;5102624;28;20211;-86
2021/01/11 04:20:55;;;;;;;41.35;22.17;;;-3.70;99.90;;;;;;5101116;28;20197;-85
2021/01/11 04:23:21;;;;;;;34.40;22.58;;;-3.70;99.90;;;;;;5102295;28;20635;-85
2021/01/11 04:25:48;;;;;;;38.15;23.70;;;-3.70;99.90;;;;;;5094809;28;20692;-85
2021/01/11 04:28:14;;;;;;;36.90;21.65;;;-3.70;99.90;;;;;;5095282;28;20195;-85
2021/01/11 04:30:40;;;;;;;32.15;21.83;;;-3.70;99.90;;;;;;5095232;28;20189;-87
2021/01/11 04:33:07;;;;;;;36.63;22.40;;;-3.70;99.90;;;;;;5095149;28;20216;-88
2021/01/11 04:35:33;;;;;;;36.35;20.70;;;-3.80;99.90;;;;;;5097796;28;20189;-90
2021/01/11 04:37:59;;;;;;;36.88;22.75;;;-3.80;99.90;;;;;;5104438;28;20569;-89
2021/01/11 04:40:25;;;;;;;31.90;22.30;;;-3.70;99.90;;;;;;5103643;28;20226;-89
2021/01/11 04:42:56;;;;;;;38.17;24.98;;;-3.80;99.90;;;;;;5104251;28;20211;-88
2021/01/11 04:45:24;;;;;;;34.28;21.30;;;-3.80;99.90;;;;;;5104423;28;20251;-88
2021/01/11 04:47:54;;;;;;;34.63;23.15;;;-3.80;99.90;;;;;;5104847;28;20279;-89
2021/01/11 04:50:21;;;;;;;38.10;23.00;;;-3.70;99.90;;;;;;5101784;28;20192;-90
2021/01/11 04:52:47;;;;;;;35.90;21.77;;;-3.70;99.90;;;;;;5105031;28;20224;-91
2021/01/11 04:55:14;;;;;;;31.75;21.35;;;-3.70;99.90;;;;;;5102476;28;20200;-91
2021/01/11 04:57:50;;;;;;;32.63;22.98;;;-3.60;99.90;;;;;;5101716;28;20215;-90
2021/01/11 05:00:20;;;;;;;34.85;21.13;;;-3.60;99.90;;;;;;5103079;28;20605;-90
2021/01/11 05:02:57;;;;;;;31.20;21.20;;;-3.70;99.90;;;;;;5102323;28;20235;-91
2021/01/11 05:05:24;;;;;;;33.08;21.95;;;-3.70;99.90;;;;;;5102875;28;20223;-91
2021/01/11 05:07:50;;;;;;;35.42;19.42;;;-3.70;99.90;;;;;;5102401;28;20196;-90
2021/01/11 05:10:21;;;;;;;35.17;23.33;;;-3.80;99.90;;;;;;5105274;28;20223;-90
2021/01/11 05:12:53;;;;;;;30.30;21.75;;;-3.80;99.90;;;;;;5105778;28;20276;-90
2021/01/11 05:15:23;;;;;;;32.78;20.67;;;-3.80;99.90;;;;;;5100473;28;20188;-91
2021/01/11 05:17:49;;;;;;;34.50;21.48;;;-3.80;99.90;;;;;;5103973;28;20200;-90
2021/01/11 05:20:19;;;;;;;35.95;20.98;;;-3.80;99.90;;;;;;5103693;28;20188;-90
2021/01/11 05:22:47;;;;;;;36.25;21.13;;;-3.80;99.90;;;;;;5105508;28;20228;-90
2021/01/11 05:25:14;;;;;;;34.90;21.00;;;-3.80;99.90;;;;;;5102607;28;20247;-90
2021/01/11 05:27:42;;;;;;;31.58;22.65;;;-3.70;99.90;;;;;;5105851;28;20297;-90
2021/01/11 05:30:15;;;;;;;33.20;21.83;;;-3.80;99.90;;;;;;5105070;28;20720;-91
2021/01/11 05:32:42;;;;;;;31.55;19.73;;;-3.80;99.90;;;;;;5101817;28;20675;-90
2021/01/11 05:35:10;;;;;;;32.20;21.70;;;-3.80;99.90;;;;;;5102926;28;20206;-90
2021/01/11 05:37:38;;;;;;;34.22;21.77;;;-3.80;99.90;;;;;;5100689;28;20684;-90
2021/01/11 05:40:12;;;;;;;39.33;21.90;;;-3.90;99.90;;;;;;5102917;28;20204;-90
2021/01/11 05:42:40;;;;;;;33.53;22.10;;;-3.90;99.90;;;;;;5103224;28;20195;-89
2021/01/11 05:45:13;;;;;;;36.05;22.48;;;-3.90;99.90;;;;;;5107402;28;20212;-89
2021/01/11 05:48:13;;;;;;;30.95;20.98;;;-3.90;99.90;;;;;;5119184;28;20264;-90
2021/01/11 05:50:41;;;;;;;37.92;21.27;;;-3.90;99.90;;;;;;5105323;28;20276;-91
2021/01/11 05:53:18;;;;;;;29.90;20.30;;;-4.00;99.90;;;;;;5100068;28;20224;-93
2021/01/11 05:55:45;;;;;;;38.08;23.80;;;-3.80;99.90;;;;;;5102690;28;20210;-91
2021/01/11 05:58:12;;;;;;;31.02;20.08;;;-3.90;99.90;;;;;;5102036;28;20196;-90
2021/01/11 06:00:39;;;;;;;32.65;21.75;;;-3.90;99.90;;;;;;5106020;28;20226;-91
2021/01/11 06:03:07;;;;;;;38.03;21.88;;;-3.90;99.90;;;;;;5104156;28;20219;-90
2021/01/11 06:05:35;;;;;;;34.92;22.77;;;-3.80;99.90;;;;;;5104133;28;20231;-90
2021/01/11 06:08:03;;;;;;;31.35;21.30;;;-3.80;99.90;;;;;;5102413;28;20199;-90
2021/01/11 06:10:30;;;;;;;30.60;21.25;;;-3.80;99.90;;;;;;5103981;28;20579;-91
2021/01/11 06:12:59;;;;;;;32.90;21.65;;;-3.80;99.90;;;;;;5107969;28;20211;-90
2021/01/11 06:15:27;;;;;;;34.58;22.73;;;-3.80;99.90;;;;;;5101579;28;20188;-91
2021/01/11 06:17:57;;;;;;;35.40;24.60;;;-3.80;99.90;;;;;;5101244;28;20199;-91
2021/01/11 06:20:27;;;;;;;36.75;22.30;;;-3.80;99.90;;;;;;5098836;28;20196;-90
2021/01/11 06:23:32;;;;;;;35.33;20.88;;;-3.90;99.90;;;;;;5100759;28;20215;-90
2021/01/11 06:25:59;;;;;;;36.17;23.55;;;-3.80;99.90;;;;;;5104752;28;20218;-90
2021/01/11 06:28:31;;;;;;;36.20;21.63;;;-3.80;99.90;;;;;;5103256;28;20217;-90
2021/01/11 06:31:16;;;;;;;36.22;22.05;;;-3.80;99.90;;;;;;5101232;28;20219;-91
2021/01/11 06:33:50;;;;;;;39.63;24.85;;;-3.90;99.90;;;;;;5099134;28;20302;-92
2021/01/11 06:36:25;;;;;;;37.97;22.30;;;-3.90;99.90;;;;;;5101441;28;20201;-91
2021/01/11 06:38:53;;;;;;;39.08;24.50;;;-3.90;99.90;;;;;;5101350;28;20244;-90
2021/01/11 06:41:28;;;;;;;41.72;25.27;;;-3.90;99.90;;;;;;5104931;28;20198;-89
2021/01/11 06:44:03;;;;;;;41.35;24.80;;;-3.90;99.90;;;;;;5100947;28;20214;-92
2021/01/11 06:46:44;;;;;;;35.10;24.23;;;-3.90;99.90;;;;;;5102375;28;20210;-90
2021/01/11 06:49:23;;;;;;;38.42;22.95;;;-4.00;99.90;;;;;;5101503;28;20202;-91
2021/01/11 06:52:01;;;;;;;33.55;22.45;;;-4.00;99.90;;;;;;5101677;28;20219;-91
2021/01/11 06:54:41;;;;;;;39.60;22.95;;;-4.10;99.90;;;;;;5097369;28;20714;-91
2021/01/11 06:57:12;;;;;;;36.80;23.60;;;-4.00;99.90;;;;;;5097472;28;20192;-91
2021/01/11 06:59:39;;;;;;;39.40;22.73;;;-4.00;99.90;;;;;;5095850;28;20275;-90
2021/01/11 07:02:27;;;;;;;38.63;23.63;;;-4.00;99.90;;;;;;5104518;28;20193;-91
2021/01/11 07:04:54;;;;;;;36.85;22.60;;;-3.90;99.90;;;;;;5096557;28;20664;-91
2021/01/11 07:07:25;;;;;;;35.72;23.58;;;-3.90;99.90;;;;;;5098574;28;20672;-91
2021/01/11 07:09:56;;;;;;;33.60;23.75;;;-3.90;99.90;;;;;;5100464;28;20200;-91
2021/01/11 07:12:23;;;;;;;40.25;23.35;;;-3.90;99.90;;;;;;5095915;28;20711;-89
2021/01/11 07:15:01;;;;;;;39.95;23.27;;;-3.90;99.90;;;;;;5102335;28;20222;-91
2021/01/11 07:17:41;;;;;;;33.60;23.73;;;-3.90;99.90;;;;;;5099178;28;20664;-90
2021/01/11 07:20:09;;;;;;;44.47;23.65;;;-4.00;99.90;;;;;;5101238;28;20216;-91
2021/01/11 07:22:38;;;;;;;38.15;25.02;;;-4.00;99.90;;;;;;5099442;28;20249;-90
2021/01/11 07:25:11;;;;;;;38.47;23.73;;;-4.00;99.90;;;;;;5100252;28;20212;-90
2021/01/11 07:27:39;;;;;;;38.60;25.02;;;-4.00;99.90;;;;;;5100445;28;20244;-90
2021/01/11 07:30:06;;;;;;;37.00;23.73;;;-3.90;99.90;;;;;;5102255;28;20204;-91
2021/01/11 07:32:32;;;;;;;37.72;22.80;;;-3.90;99.90;;;;;;5101550;28;20695;-91
2021/01/11 07:35:00;;;;;;;37.95;23.95;;;-3.90;99.90;;;;;;5099728;28;20191;-90
2021/01/11 07:37:26;;;;;;;39.75;24.00;;;-3.90;99.90;;;;;;5101621;28;20656;-89
2021/01/11 07:39:52;;;;;;;36.03;24.58;;;-3.80;99.90;;;;;;5102282;28;20199;-90
2021/01/11 07:42:20;;;;;;;40.67;23.10;;;-3.80;99.90;;;;;;5100939;28;20583;-89
2021/01/11 07:44:47;;;;;;;36.60;23.58;;;-3.70;99.90;;;;;;5101210;28;20319;-90
2021/01/11 07:47:15;;;;;;;36.33;21.80;;;-3.70;99.90;;;;;;5101192;28;20657;-90
2021/01/11 07:49:43;;;;;;;27.88;21.13;;;-3.70;99.90;;;;;;5102508;28;20192;-91
2021/01/11 07:52:10;;;;;;;41.25;24.75;;;-3.60;99.90;;;;;;5100563;28;20249;-90
2021/01/11 07:54:38;;;;;;;36.17;22.10;;;-3.60;99.90;;;;;;5099063;28;20219;-91
2021/01/11 07:57:08;;;;;;;38.58;23.30;;;-3.50;99.90;;;;;;5100206;28;20196;-91
2021/01/11 07:59:35;;;;;;;35.22;24.13;;;-3.50;99.90;;;;;;5100571;28;20199;-91
2021/01/11 08:02:04;;;;;;;39.33;21.55;;;-3.50;99.90;;;;;;5119437;28;20229;-90
2021/01/11 08:04:35;;;;;;;38.22;23.83;;;-3.40;99.90;;;;;;5108126;28;20232;-89
2021/01/11 08:07:09;;;;;;;31.73;20.23;;;-3.40;99.90;;;;;;5084123;28;20760;-87
2021/01/11 08:09:37;;;;;;;34.67;21.50;;;-3.40;99.90;;;;;;5097705;28;20717;-90
2021/01/11 08:12:08;;;;;;;35.42;22.08;;;-3.40;99.90;;;;;;5101016;28;20202;-93
2021/01/11 08:14:34;;;;;;;42.33;21.85;;;-3.40;99.90;;;;;;5092791;28;20224;-89
2021/01/11 08:17:02;;;;;;;30.48;22.00;;;-3.30;99.90;;;;;;5099259;28;20197;-89
2021/01/11 08:19:28;;;;;;;37.30;21.38;;;-3.30;99.90;;;;;;5096694;28;20682;-90
2021/01/11 08:21:58;;;;;;;27.83;20.30;;;-3.30;99.90;;;;;;5102147;28;20264;-89
2021/01/11 08:24:25;;;;;;;33.42;18.38;;;-3.30;99.90;;;;;;5095513;28;20212;-89
2021/01/11 08:27:01;;;;;;;32.80;20.50;;;-3.30;99.90;;;;;;5095419;28;20672;-90
2021/01/11 08:29:30;;;;;;;25.38;16.38;;;-3.20;99.90;;;;;;5092475;28;20756;-88
2021/01/11 08:31:58;;;;;;;24.58;15.57;;;-3.10;99.90;;;;;;5096910;28;20195;-88
2021/01/11 08:34:26;;;;;;;31.60;19.75;;;-3.10;99.90;;;;;;5096091;28;20216;-88
2021/01/11 08:36:52;;;;;;;35.53;21.92;;;-3.10;99.90;;;;;;5096740;28;20291;-90
2021/01/11 08:39:18;;;;;;;31.33;18.63;;;-3.10;99.90;;;;;;5099918;28;20565;-89
2021/01/11 08:41:48;;;;;;;34.03;19.80;;;-3.00;99.90;;;;;;5101599;28;20575;-89
2021/01/11 08:44:32;;;;;;;30.35;20.42;;;-3.00;99.90;;;;;;5098261;28;20216;-89
2021/01/11 08:47:08;;;;;;;36.88;21.60;;;-3.00;99.90;;;;;;5097862;28;20618;-89
2021/01/11 08:49:36;;;;;;;31.70;21.10;;;-2.90;99.90;;;;;;5096470;28;20734;-88
2021/01/11 08:52:10;;;;;;;28.23;18.92;;;-2.90;99.90;;;;;;5094323;28;20208;-91
2021/01/11 08:54:37;;;;;;;23.70;17.17;;;-2.90;99.90;;;;;;5094780;28;20224;-88
2021/01/11 08:57:14;;;;;;;27.15;18.10;;;-2.80;99.90;;;;;;5096339;28;20200;-89
2021/01/11 08:59:49;;;;;;;31.25;18.88;;;-2.80;99.90;;;;;;5095454;28;20205;-89
2021/01/11 09:02:36;;;;;;;33.15;19.15;;;-2.60;99.90;;;;;;5099126;28;20652;-90
2021/01/11 09:05:16;;;;;;;32.88;19.27;;;-2.20;99.90;;;;;;5092031;28;20281;-89
2021/01/11 09:07:43;;;;;;;32.88;20.10;;;-2.00;99.90;;;;;;5098957;28;20204;-90
2021/01/11 09:10:24;;;;;;;35.60;20.60;;;-1.80;99.90;;;;;;5101558;28;20218;-88
2021/01/11 09:12:51;;;;;;;38.38;21.27;;;-1.60;99.90;;;;;;5099984;28;20219;-88
2021/01/11 09:15:26;;;;;;;30.30;20.17;;;-1.20;99.90;;;;;;5098343;28;20204;-88
2021/01/11 09:18:03;;;;;;;26.48;19.38;;;-1.00;99.90;;;;;;5099595;28;20191;-94
2021/01/11 09:20:33;;;;;;;32.92;19.58;;;-0.90;99.90;;;;;;5096242;28;20192;-87
2021/01/11 09:22:59;;;;;;;29.90;19.10;;;-0.90;99.90;;;;;;5097548;28;20220;-90
2021/01/11 09:25:28;;;;;;;34.30;20.52;;;-0.70;99.90;;;;;;5105037;28;20258;-90
2021/01/11 09:27:55;;;;;;;32.83;20.08;;;-0.40;99.90;;;;;;5096837;28;20188;-92
2021/01/11 09:30:21;;;;;;;30.33;18.90;;;0.10;99.90;;;;;;5098286;28;20200;-92
2021/01/11 09:32:48;;;;;;;30.38;19.48;;;0.30;99.90;;;;;;5104486;28;20213;-93
2021/01/11 09:35:15;;;;;;;24.85;17.55;;;0.40;99.90;;;;;;5104188;28;20196;-91
2021/01/11 09:37:43;;;;;;;29.10;17.88;;;0.20;99.90;;;;;;5105066;28;20587;-91
2021/01/11 09:40:10;;;;;;;26.45;17.67;;;0.00;99.90;;;;;;5102569;28;20196;-90
2021/01/11 09:42:36;;;;;;;28.67;18.63;;;-0.20;99.90;;;;;;5102864;28;20254;-90
2021/01/11 09:45:03;;;;;;;28.45;18.33;;;-0.40;99.90;;;;;;5100794;28;20313;-90
2021/01/11 09:47:29;;;;;;;31.17;18.70;;;-0.40;99.90;;;;;;5101714;28;20251;-89
2021/01/11 09:49:55;;;;;;;30.23;19.98;;;-0.20;99.90;;;;;;5103308;28;20218;-91
2021/01/11 09:52:23;;;;;;;35.40;18.60;;;-0.20;99.90;;;;;;5100295;28;20679;-91
2021/01/11 09:54:50;;;;;;;28.33;18.83;;;-0.10;99.90;;;;;;5102285;28;20693;-90
2021/01/11 09:57:16;;;;;;;27.60;18.38;;;0.10;99.90;;;;;;5101846;28;20201;-91
2021/01/11 09:59:42;;;;;;;27.65;17.88;;;0.30;99.90;;;;;;5102845;28;20196;-89
2021/01/11 10:02:09;;;;;;;25.23;17.38;;;0.30;99.80;;;;;;5103190;28;20689;-89
2021/01/11 10:04:36;;;;;;;26.38;18.58;;;0.50;99.80;;;;;;5099358;28;20223;-89
2021/01/11 10:07:02;;;;;;;25.40;17.67;;;0.50;99.70;;;;;;5106135;28;20188;-89
2021/01/11 10:09:29;;;;;;;28.50;19.92;;;0.90;99.40;;;;;;5102762;28;20688;-90
2021/01/11 10:11:58;;;;;;;32.63;19.05;;;1.50;99.20;;;;;;5102845;28;20189;-90
2021/01/11 10:14:25;;;;;;;35.08;17.67;;;2.10;98.10;;;;;;5105705;28;20220;-90
2021/01/11 10:16:51;;;;;;;28.73;19.00;;;3.20;97.30;;;;;;5100854;28;20193;-92
2021/01/11 10:19:19;;;;;;;28.55;18.65;;;3.90;94.60;;;;;;5114658;28;20190;-90
2021/01/11 10:21:45;;;;;;;25.52;19.08;;;3.70;93.00;;;;;;5106514;28;20193;-91
2021/01/11 10:24:13;;;;;;;31.30;19.75;;;3.70;93.10;;;;;;5108662;28;20218;-90
2021/01/11 10:26:42;;;;;;;26.45;19.05;;;3.30;92.90;;;;;;5106165;28;20272;-90
2021/01/11 10:29:09;;;;;;;28.50;20.35;;;3.40;92.80;;;;;;5102572;28;20194;-91
2021/01/11 10:31:36;;;;;;;25.35;18.50;;;2.90;93.60;;;;;;5106281;28;20226;-91
2021/01/11 10:34:02;;;;;;;26.63;19.27;;;3.60;93.60;;;;;;5100876;28;20226;-91
2021/01/11 10:36:29;;;;;;;25.83;19.00;;;4.40;92.50;;;;;;5100391;28;20556;-90
2021/01/11 10:38:55;;;;;;;28.17;19.37;;;5.60;90.80;;;;;;5099104;28;20802;-91
2021/01/11 10:41:22;;;;;;;26.47;18.57;;;7.20;87.20;;;;;;5101767;28;20446;-91
2021/01/11 10:43:49;;;;;;;24.33;17.63;;;8.60;82.00;;;;;;5106005;28;20465;-92
2021/01/11 10:46:16;;;;;;;28.80;19.70;;;9.60;74.70;;;;;;5106304;28;20496;-91
2021/01/11 10:48:43;;;;;;;26.53;18.97;;;10.30;69.60;;;;;;5102920;28;20434;-90
2021/01/11 10:51:11;;;;;;;31.83;20.40;;;11.20;66.40;;;;;;5101737;28;20463;-91
2021/01/11 10:53:38;;;;;;;24.23;19.70;;;11.20;64.30;;;;;;5099247;28;20466;-92
2021/01/11 10:56:05;;;;;;;26.07;20.70;;;11.80;63.00;;;;;;5102879;28;20577;-92
2021/01/11 10:58:32;;;;;;;23.10;19.80;;;12.60;58.50;;;;;;5097265;28;20458;-90
2021/01/11 11:00:58;;;;;;;28.90;19.63;;;11.30;57.40;;;;;;5097902;28;20449;-91
2021/01/11 11:03:25;;;;;;;26.03;21.10;;;11.60;58.20;;;;;;5095027;28;20869;-90
2021/01/11 11:05:52;;;;;;;23.07;20.60;;;11.50;58.50;;;;;;5095598;28;20442;-91
2021/01/11 11:08:19;;;;;;;28.53;20.53;;;10.80;57.50;;;;;;5100723;28;21027;-91
2021/01/11 11:10:45;;;;;;;24.30;21.17;;;10.20;57.70;;;;;;5098324;28;20803;-92
2021/01/11 11:13:11;;;;;;;27.20;20.93;;;9.10;60.30;;;;;;5095599;28;20458;-91
2021/01/11 11:15:38;;;;;;;23.97;19.70;;;7.60;64.10;;;;;;5097858;28;20520;-91
2021/01/11 11:18:04;;;;;;;25.60;20.00;;;7.60;67.00;;;;;;5094718;28;20442;-90
2021/01/11 11:20:31;;;;;;;25.83;20.37;;;6.60;69.00;;;;;;5099436;28;21211;-89
2021/01/11 11:22:57;;;;;;;26.07;19.97;;;7.40;69.70;;;;;;5099283;28;20462;-91
2021/01/11 11:25:23;;;;;;;28.97;19.70;;;7.30;68.80;;;;;;5098661;28;20468;-86
2021/01/11 11:27:51;;;;;;;23.57;19.30;;;9.00;68.60;;;;;;5099565;28;20977;-82
2021/01/11 11:30:17;;;;;;;26.00;20.10;;;9.60;63.70;;;;;;5100517;28;20451;-83
2021/01/11 11:32:47;;;;;;;23.57;19.73;;;9.40;62.60;;;;;;5100447;28;20958;-83
2021/01/11 11:35:14;;;;;;;25.20;19.20;;;8.80;63.80;;;;;;5099729;28;20469;-83
2021/01/11 11:37:41;;;;;;;23.43;18.97;;;8.90;64.30;;;;;;5098667;28;20576;-84
2021/01/11 11:40:09;;;;;;;22.57;18.47;;;9.60;63.80;;;;;;5102403;28;20441;-94
2021/01/11 11:42:35;;;;;;;28.43;18.77;;;10.40;60.00;;;;;;5101730;28;21009;-92
2021/01/11 11:45:02;;;;;;;27.50;19.50;;;10.70;59.30;;;;;;5101534;28;20495;-91
2021/01/11 11:47:32;;;;;;;23.47;19.37;;;11.50;57.90;;;;;;5101803;28;20474;-90
2021/01/11 11:49:58;;;;;;;22.10;19.70;;;11.60;56.70;;;;;;5100733;28;20929;-91
2021/01/11 11:52:24;;;;;;;26.80;21.70;;;11.30;57.10;;;;;;5100844;28;20839;-91
2021/01/11 11:54:52;;;;;;;20.07;17.93;;;11.40;56.50;;;;;;5100255;28;20516;-92
2021/01/11 11:57:18;;;;;;;21.60;19.23;;;12.10;55.60;;;;;;5099723;28;20449;-92
2021/01/11 11:59:44;;;;;;;23.33;20.90;;;11.90;55.10;;;;;;5099221;28;20508;-91
2021/01/11 12:02:12;;;;;;;24.70;20.23;;;12.50;53.90;;;;;;5099701;28;20985;-91
2021/01/11 12:04:39;;;;;;;22.80;18.70;;;13.20;54.00;;;;;;5099354;28;20550;-91
2021/01/11 12:07:14;;;;;;;23.00;17.30;;;14.10;52.80;;;;;;5098682;28;20447;-93
2021/01/11 12:09:40;;;;;;;26.23;19.50;;;16.00;49.50;;;;;;5096601;28;20494;-91
2021/01/11 12:12:07;;;;;;;19.20;17.30;;;14.00;48.70;;;;;;5101167;28;20446;-92
2021/01/11 12:14:34;;;;;;;20.70;18.53;;;13.30;50.20;;;;;;5099793;28;20473;-91
2021/01/11 12:17:01;;;;;;;20.17;18.07;;;13.50;50.40;;;;;;5101188;28;20478;-92
2021/01/11 12:19:27;;;;;;;21.43;18.50;;;13.80;51.40;;;;;;5100189;28;20446;-92
2021/01/11 12:21:54;;;;;;;19.27;17.20;;;15.10;49.10;;;;;;5099570;28;20444;-92
2021/01/11 12:24:20;;;;;;;25.57;18.70;;;15.30;48.50;;;;;;5100018;28;20462;-91
2021/01/11 12:26:48;;;;;;;20.97;18.77;;;15.30;48.00;;;;;;5098572;28;20444;-90
2021/01/11 12:29:16;;;;;;;24.90;18.13;;;13.90;47.50;;;;;;5102892;28;20439;-90
2021/01/11 12:31:43;;;;;;;19.57;17.50;;;13.00;49.20;;;;;;5100114;28;20445;-90
2021/01/11 12:34:10;;;;;;;21.37;17.43;;;11.70;50.60;;;;;;5098191;28;20469;-91
2021/01/11 12:36:38;;;;;;;22.60;18.53;;;11.20;52.00;;;;;;5103755;28;20481;-91